sensor_id;sensor_type;location;lat;lon;timestamp;temperature;humidity
33149;DHT22;19506;51.040;3.856;2022-08-25T14:33:31;25.80;99.90
33149;DHT22;19506;51.040;3.856;2022-08-25T14:35:59;25.80;99.90
33149;DHT22;19506;51.040;3.856;2022-08-25T14:38:27;25.80;99.90
33149;DHT22;19506;51.040;3.856;2022-08-25T14:40:53;26.00;99.90
33149;DHT22;19506;51.040;3.856;2022-08-25T14:43:18;26.10;99.90
33149;DHT22;19506;51.040;3.856;2022-08-25T14:45:45;26.10;99.90
33149;DHT22;19506;51.040;3.856;2022-08-25T14:48:33;26.20;99.90
33149;DHT22;19506;51.040;3.856;2022-08-25T14:51:00;26.20;99.90
33149;DHT22;19506;51.040;3.856;2022-08-25T14:53:26;26.30;99.90
33149;DHT22;19506;51.040;3.856;2022-08-25T14:55:52;26.30;99.90
33149;DHT22;19506;51.040;3.856;2022-08-25T14:58:20;26.30;99.90
33149;DHT22;19506;51.040;3.856;2022-08-25T15:00:47;26.30;99.90
33149;DHT22;19506;51.040;3.856;2022-08-25T15:06:17;26.30;99.90
33149;DHT22;19506;51.040;3.856;2022-08-25T15:08:43;26.40;99.90
33149;DHT22;19506;51.040;3.856;2022-08-25T15:11:28;26.50;99.90
33149;DHT22;19506;51.040;3.856;2022-08-25T15:13:54;26.70;99.90
33149;DHT22;19506;51.040;3.856;2022-08-25T15:16:24;26.80;99.90
33149;DHT22;19506;51.040;3.856;2022-08-25T15:18:51;26.80;99.90
33149;DHT22;19506;51.040;3.856;2022-08-25T15:21:17;26.80;99.90
33149;DHT22;19506;51.040;3.856;2022-08-25T15:23:42;26.90;99.90
33149;DHT22;19506;51.040;3.856;2022-08-25T15:26:11;26.90;99.90
33149;DHT22;19506;51.040;3.856;2022-08-25T15:28:41;26.80;99.90
33149;DHT22;19506;51.040;3.856;2022-08-25T15:31:09;26.80;99.90
33149;DHT22;19506;51.040;3.856;2022-08-25T15:33:37;26.70;99.90
33149;DHT22;19506;51.040;3.856;2022-08-25T15:36:07;26.70;99.90
33149;DHT22;19506;51.040;3.856;2022-08-25T15:38:36;26.70;99.90
33149;DHT22;19506;51.040;3.856;2022-08-25T15:41:02;26.80;99.90
33149;DHT22;19506;51.040;3.856;2022-08-25T15:43:28;26.80;99.90
33149;DHT22;19506;51.040;3.856;2022-08-25T15:45:54;26.80;99.90
33149;DHT22;19506;51.040;3.856;2022-08-25T15:48:19;26.90;99.90
33149;DHT22;19506;51.040;3.856;2022-08-25T15:50:45;26.90;99.90
33149;DHT22;19506;51.040;3.856;2022-08-25T15:53:12;26.80;99.90
33149;DHT22;19506;51.040;3.856;2022-08-25T15:55:38;26.80;99.90
33149;DHT22;19506;51.040;3.856;2022-08-25T15:58:05;26.80;99.90
33149;DHT22;19506;51.040;3.856;2022-08-25T16:00:31;26.80;99.90
33149;DHT22;19506;51.040;3.856;2022-08-25T16:02:56;26.80;99.90
33149;DHT22;19506;51.040;3.856;2022-08-25T16:05:22;26.80;99.90
33149;DHT22;19506;51.040;3.856;2022-08-25T16:07:48;26.80;99.90
33149;DHT22;19506;51.040;3.856;2022-08-25T16:10:13;26.80;99.90
33149;DHT22;19506;51.040;3.856;2022-08-25T16:12:39;26.80;99.90
33149;DHT22;19506;51.040;3.856;2022-08-25T16:15:06;26.80;99.90
33149;DHT22;19506;51.040;3.856;2022-08-25T16:17:32;26.80;99.90
33149;DHT22;19506;51.040;3.856;2022-08-25T16:19:57;26.80;99.90
33149;DHT22;19506;51.040;3.856;2022-08-25T16:22:23;26.80;99.90
33149;DHT22;19506;51.040;3.856;2022-08-25T16:24:49;26.80;99.90
33149;DHT22;19506;51.040;3.856;2022-08-25T16:27:15;26.80;99.90
33149;DHT22;19506;51.040;3.856;2022-08-25T16:29:42;26.80;99.90
33149;DHT22;19506;51.040;3.856;2022-08-25T16:32:09;26.80;99.90
33149;DHT22;19506;51.040;3.856;2022-08-25T16:34:36;26.80;99.90
33149;DHT22;19506;51.040;3.856;2022-08-25T16:37:02;26.80;99.90
33149;DHT22;19506;51.040;3.856;2022-08-25T16:39:28;26.70;99.90
33149;DHT22;19506;51.040;3.856;2022-08-25T16:41:54;26.70;99.90
33149;DHT22;19506;51.040;3.856;2022-08-25T16:44:21;26.70;99.90
33149;DHT22;19506;51.040;3.856;2022-08-25T16:46:47;26.60;99.90
33149;DHT22;19506;51.040;3.856;2022-08-25T16:49:14;26.60;99.90
33149;DHT22;19506;51.040;3.856;2022-08-25T16:51:41;26.50;99.90
33149;DHT22;19506;51.040;3.856;2022-08-25T16:54:09;26.60;99.90
33149;DHT22;19506;51.040;3.856;2022-08-25T16:56:53;26.50;99.90
33149;DHT22;19506;51.040;3.856;2022-08-25T16:59:20;26.50;99.90
33149;DHT22;19506;51.040;3.856;2022-08-25T17:01:45;26.40;99.90
33149;DHT22;19506;51.040;3.856;2022-08-25T17:04:11;26.40;99.90
33149;DHT22;19506;51.040;3.856;2022-08-25T17:06:40;26.40;99.90
33149;DHT22;19506;51.040;3.856;2022-08-25T17:09:09;26.40;99.90
33149;DHT22;19506;51.040;3.856;2022-08-25T17:11:40;26.30;99.90
33149;DHT22;19506;51.040;3.856;2022-08-25T17:14:09;26.20;99.90
33149;DHT22;19506;51.040;3.856;2022-08-25T17:16:35;26.20;99.90
33149;DHT22;19506;51.040;3.856;2022-08-25T17:19:04;26.20;99.90
33149;DHT22;19506;51.040;3.856;2022-08-25T17:21:33;26.20;99.90
33149;DHT22;19506;51.040;3.856;2022-08-25T17:24:00;26.20;99.90
33149;DHT22;19506;51.040;3.856;2022-08-25T17:26:26;26.20;99.90
33149;DHT22;19506;51.040;3.856;2022-08-25T17:28:52;26.20;99.90
33149;DHT22;19506;51.040;3.856;2022-08-25T17:31:18;26.20;99.90
33149;DHT22;19506;51.040;3.856;2022-08-25T17:33:45;26.10;99.90
33149;DHT22;19506;51.040;3.856;2022-08-25T17:36:11;26.20;99.90
33149;DHT22;19506;51.040;3.856;2022-08-25T17:38:38;26.10;99.90
33149;DHT22;19506;51.040;3.856;2022-08-25T17:41:06;26.10;99.90
33149;DHT22;19506;51.040;3.856;2022-08-25T17:43:34;26.10;99.90
33149;DHT22;19506;51.040;3.856;2022-08-25T17:46:01;26.10;99.90
33149;DHT22;19506;51.040;3.856;2022-08-25T17:48:27;26.10;99.90
33149;DHT22;19506;51.040;3.856;2022-08-25T17:50:54;26.20;99.90
33149;DHT22;19506;51.040;3.856;2022-08-25T17:53:20;26.10;99.90
33149;DHT22;19506;51.040;3.856;2022-08-25T17:55:46;26.10;99.90
33149;DHT22;19506;51.040;3.856;2022-08-25T17:58:15;26.10;99.90
33149;DHT22;19506;51.040;3.856;2022-08-25T18:00:41;26.00;99.90
33149;DHT22;19506;51.040;3.856;2022-08-25T18:03:10;26.00;99.90
33149;DHT22;19506;51.040;3.856;2022-08-25T18:05:36;26.00;99.90
33149;DHT22;19506;51.040;3.856;2022-08-25T18:08:03;26.00;99.90
33149;DHT22;19506;51.040;3.856;2022-08-25T18:10:29;26.00;99.90
33149;DHT22;19506;51.040;3.856;2022-08-25T18:12:56;25.90;99.90
33149;DHT22;19506;51.040;3.856;2022-08-25T18:15:22;25.80;99.90
33149;DHT22;19506;51.040;3.856;2022-08-25T18:17:49;25.80;99.90
33149;DHT22;19506;51.040;3.856;2022-08-25T18:20:14;25.70;99.90
33149;DHT22;19506;51.040;3.856;2022-08-25T18:22:41;25.60;99.90
33149;DHT22;19506;51.040;3.856;2022-08-25T18:25:10;25.50;99.90
33149;DHT22;19506;51.040;3.856;2022-08-25T18:27:36;25.50;99.90
33149;DHT22;19506;51.040;3.856;2022-08-25T18:30:04;25.40;99.90
33149;DHT22;19506;51.040;3.856;2022-08-25T18:32:30;25.40;99.90
33149;DHT22;19506;51.040;3.856;2022-08-25T18:34:56;25.40;99.90
33149;DHT22;19506;51.040;3.856;2022-08-25T18:37:22;25.40;99.90
33149;DHT22;19506;51.040;3.856;2022-08-25T18:40:07;25.30;99.90
33149;DHT22;19506;51.040;3.856;2022-08-25T18:45:21;25.30;99.90
33149;DHT22;19506;51.040;3.856;2022-08-25T18:47:47;25.30;99.90
33149;DHT22;19506;51.040;3.856;2022-08-25T18:50:14;25.30;99.90
33149;DHT22;19506;51.040;3.856;2022-08-25T18:52:40;25.30;99.90
33149;DHT22;19506;51.040;3.856;2022-08-25T18:55:06;25.30;99.90
33149;DHT22;19506;51.040;3.856;2022-08-25T18:57:32;25.40;99.90
33149;DHT22;19506;51.040;3.856;2022-08-25T18:59:57;25.40;99.90
33149;DHT22;19506;51.040;3.856;2022-08-25T19:02:23;25.40;99.90
33149;DHT22;19506;51.040;3.856;2022-08-25T19:04:48;25.40;99.90
33149;DHT22;19506;51.040;3.856;2022-08-25T19:07:17;25.40;99.90
33149;DHT22;19506;51.040;3.856;2022-08-25T19:09:43;25.40;99.90
33149;DHT22;19506;51.040;3.856;2022-08-25T19:12:09;25.40;99.90
33149;DHT22;19506;51.040;3.856;2022-08-25T19:14:35;25.40;99.90
33149;DHT22;19506;51.040;3.856;2022-08-25T19:17:00;25.40;99.90
33149;DHT22;19506;51.040;3.856;2022-08-25T19:19:26;25.40;99.90
33149;DHT22;19506;51.040;3.856;2022-08-25T19:21:52;25.40;99.90
33149;DHT22;19506;51.040;3.856;2022-08-25T19:24:18;25.50;99.90
33149;DHT22;19506;51.040;3.856;2022-08-25T19:26:44;25.60;99.90
33149;DHT22;19506;51.040;3.856;2022-08-25T19:29:13;25.60;99.90
33149;DHT22;19506;51.040;3.856;2022-08-25T19:31:41;25.60;99.90
33149;DHT22;19506;51.040;3.856;2022-08-25T19:34:12;25.60;99.90
33149;DHT22;19506;51.040;3.856;2022-08-25T19:36:39;25.50;99.90
33149;DHT22;19506;51.040;3.856;2022-08-25T19:39:06;25.60;99.90
33149;DHT22;19506;51.040;3.856;2022-08-25T19:41:33;25.70;99.90
33149;DHT22;19506;51.040;3.856;2022-08-25T19:43:59;25.70;99.90
33149;DHT22;19506;51.040;3.856;2022-08-25T19:46:32;25.70;99.90
33149;DHT22;19506;51.040;3.856;2022-08-25T19:48:59;25.70;99.90
33149;DHT22;19506;51.040;3.856;2022-08-25T19:51:25;25.70;99.90
33149;DHT22;19506;51.040;3.856;2022-08-25T19:53:50;25.70;99.90
33149;DHT22;19506;51.040;3.856;2022-08-25T19:56:16;25.70;99.90
33149;DHT22;19506;51.040;3.856;2022-08-25T19:58:42;25.70;99.90
33149;DHT22;19506;51.040;3.856;2022-08-25T20:01:07;25.70;99.90
33149;DHT22;19506;51.040;3.856;2022-08-25T20:03:33;25.70;99.90
33149;DHT22;19506;51.040;3.856;2022-08-25T20:05:59;25.70;99.90
33149;DHT22;19506;51.040;3.856;2022-08-25T20:08:25;25.70;99.90
33149;DHT22;19506;51.040;3.856;2022-08-25T20:10:50;25.70;99.90
33149;DHT22;19506;51.040;3.856;2022-08-25T20:13:17;25.70;99.90
33149;DHT22;19506;51.040;3.856;2022-08-25T20:15:43;25.70;99.90
33149;DHT22;19506;51.040;3.856;2022-08-25T20:18:09;25.80;99.90
33149;DHT22;19506;51.040;3.856;2022-08-25T20:20:34;25.90;99.90
